createdAt,value
2022-08-30T00:00:05.744Z,23.50
2022-08-30T00:02:37.111Z,23.50
2022-08-30T00:05:07.369Z,23.40
2022-08-30T00:07:38.092Z,23.40
2022-08-30T00:10:10.076Z,23.40
2022-08-30T00:12:39.041Z,23.40
2022-08-30T00:15:09.392Z,23.40
2022-08-30T00:17:43.711Z,23.30
2022-08-30T00:20:18.072Z,23.40
2022-08-30T00:22:47.960Z,23.30
2022-08-30T00:25:17.675Z,23.30
2022-08-30T00:27:46.818Z,23.30
2022-08-30T00:30:17.251Z,23.30
2022-08-30T00:32:47.569Z,23.30
2022-08-30T00:35:20.541Z,23.30
2022-08-30T00:37:50.847Z,23.30
2022-08-30T00:40:24.834Z,23.30
2022-08-30T00:42:59.569Z,23.20
2022-08-30T00:45:35.624Z,23.30
2022-08-30T00:48:06.978Z,23.30
2022-08-30T00:50:40.910Z,23.30
2022-08-30T00:53:16.364Z,23.20
2022-08-30T00:55:45.859Z,23.20
2022-08-30T00:58:21.379Z,23.30
2022-08-30T01:00:53.315Z,23.20
2022-08-30T01:03:23.919Z,23.20
2022-08-30T01:05:53.837Z,23.20
2022-08-30T01:08:23.283Z,23.20
2022-08-30T01:10:54.473Z,23.20
2022-08-30T01:13:26.645Z,23.20
2022-08-30T01:15:56.793Z,23.20
2022-08-30T01:18:27.646Z,23.20
2022-08-30T01:21:03.821Z,23.20
2022-08-30T01:23:36.699Z,23.20
2022-08-30T01:26:07.965Z,23.20
2022-08-30T01:28:37.816Z,23.10
2022-08-30T01:31:07.273Z,23.10
2022-08-30T01:33:38.632Z,23.10
2022-08-30T01:36:12.497Z,23.10
2022-08-30T01:38:49.192Z,23.10
2022-08-30T01:41:23.089Z,23.10
2022-08-30T01:43:55.481Z,23.10
2022-08-30T01:46:29.017Z,23.10
2022-08-30T01:48:59.770Z,23.10
2022-08-30T01:51:30.028Z,23.10
2022-08-30T01:54:00.332Z,23.10
2022-08-30T01:56:30.979Z,23.00
2022-08-30T01:59:02.957Z,23.10
2022-08-30T02:01:35.838Z,23.00
2022-08-30T02:04:06.643Z,23.00
2022-08-30T02:06:35.846Z,23.00
2022-08-30T02:09:06.861Z,23.00
2022-08-30T02:11:35.680Z,23.00
2022-08-30T02:14:04.875Z,23.00
2022-08-30T02:16:33.993Z,23.00
2022-08-30T02:19:02.820Z,22.90
2022-08-30T02:21:31.837Z,22.90
2022-08-30T02:24:00.541Z,22.90
2022-08-30T02:26:30.701Z,22.90
2022-08-30T02:29:00.133Z,22.90
2022-08-30T02:31:28.950Z,22.80
2022-08-30T02:33:58.776Z,22.80
2022-08-30T02:36:27.758Z,22.80
2022-08-30T02:38:56.634Z,22.80
2022-08-30T02:41:25.523Z,22.80
2022-08-30T02:43:58.462Z,22.80
2022-08-30T02:46:27.265Z,22.80
2022-08-30T02:49:12.997Z,22.80
2022-08-30T02:51:51.317Z,22.80
2022-08-30T02:54:20.811Z,22.70
2022-08-30T02:56:51.091Z,22.70
2022-08-30T02:59:21.061Z,22.70
2022-08-30T03:01:49.738Z,22.70
2022-08-30T03:04:19.131Z,22.70
2022-08-30T03:06:56.133Z,22.70
2022-08-30T03:09:24.737Z,22.70
2022-08-30T03:11:53.405Z,22.60
2022-08-30T03:14:24.163Z,22.60
2022-08-30T03:16:53.193Z,22.60
2022-08-30T03:19:22.663Z,22.60
2022-08-30T03:21:51.507Z,22.60
2022-08-30T03:24:20.310Z,22.60
2022-08-30T03:26:49.134Z,22.60
2022-08-30T03:29:18.023Z,22.60
2022-08-30T03:31:53.656Z,22.60
2022-08-30T03:34:24.136Z,22.50
2022-08-30T03:36:55.095Z,22.50
2022-08-30T03:39:25.963Z,22.50
2022-08-30T03:41:55.372Z,22.50
2022-08-30T03:44:24.535Z,22.40
2022-08-30T03:46:54.769Z,22.40
2022-08-30T03:49:24.475Z,22.40
2022-08-30T03:51:53.343Z,22.40
2022-08-30T03:54:24.232Z,22.40
2022-08-30T03:56:53.605Z,22.40
2022-08-30T03:59:22.266Z,22.30
2022-08-30T04:01:51.565Z,22.30
2022-08-30T04:04:21.868Z,22.30
2022-08-30T04:06:50.965Z,22.30
2022-08-30T04:09:20.397Z,22.30
2022-08-30T04:11:49.214Z,22.20
2022-08-30T04:14:18.093Z,22.20
2022-08-30T04:16:47.064Z,22.20
2022-08-30T04:19:15.920Z,22.20
2022-08-30T04:21:46.064Z,22.20
2022-08-30T04:24:15.438Z,22.10
2022-08-30T04:26:44.731Z,22.10
2022-08-30T04:29:16.715Z,22.10
2022-08-30T04:31:45.665Z,22.00
2022-08-30T04:34:16.092Z,22.00
2022-08-30T04:36:48.139Z,22.00
2022-08-30T04:39:17.645Z,22.00
2022-08-30T04:41:46.576Z,22.00
2022-08-30T04:44:19.491Z,21.90
2022-08-30T04:46:49.024Z,21.90
2022-08-30T04:49:17.725Z,21.90
2022-08-30T04:51:50.195Z,21.90
2022-08-30T04:54:20.837Z,21.80
2022-08-30T04:56:56.214Z,21.80
2022-08-30T04:59:27.646Z,21.80
2022-08-30T05:01:59.262Z,21.80
2022-08-30T05:04:28.783Z,21.80
2022-08-30T05:07:00.574Z,21.80
2022-08-30T05:09:30.347Z,21.80
2022-08-30T05:11:59.558Z,21.80
2022-08-30T05:14:29.255Z,21.80
2022-08-30T05:16:59.700Z,21.80
2022-08-30T05:19:28.812Z,21.80
2022-08-30T05:21:59.523Z,21.80
2022-08-30T05:24:29.098Z,21.80
2022-08-30T05:27:05.759Z,21.80
2022-08-30T05:29:36.347Z,21.80
2022-08-30T05:32:10.349Z,21.80
2022-08-30T05:34:40.306Z,21.80
2022-08-30T05:37:13.928Z,21.80
2022-08-30T05:39:51.525Z,21.80
2022-08-30T05:42:26.903Z,21.80
2022-08-30T05:45:01.594Z,21.80
2022-08-30T05:47:34.543Z,21.80
2022-08-30T05:50:07.286Z,21.80
2022-08-30T05:52:45.346Z,21.80
2022-08-30T05:55:16.626Z,21.80
2022-08-30T05:57:55.927Z,21.80
2022-08-30T06:00:30.586Z,21.80
2022-08-30T06:03:07.323Z,21.80
2022-08-30T06:05:39.483Z,21.80
2022-08-30T06:08:14.088Z,21.80
2022-08-30T06:10:46.036Z,21.80
2022-08-30T06:13:19.828Z,21.90
2022-08-30T06:15:56.875Z,21.90
2022-08-30T06:18:31.803Z,21.90
2022-08-30T09:54:37.040Z,23.80
2022-08-30T09:57:13.299Z,23.90
2022-08-30T09:59:54.316Z,24.00
2022-08-30T10:02:44.511Z,24.00
2022-08-30T10:05:25.246Z,24.10
2022-08-30T10:08:07.132Z,24.20
2022-08-30T10:10:50.940Z,24.30
2022-08-30T10:13:52.024Z,24.40
2022-08-30T10:16:37.127Z,24.40
2022-08-30T10:19:22.826Z,24.50
2022-08-30T10:21:59.879Z,24.60
2022-08-30T10:24:36.079Z,24.70
2022-08-30T10:27:12.789Z,24.80
2022-08-30T10:29:47.541Z,24.80
2022-08-30T10:32:25.851Z,24.80
2022-08-30T10:34:59.065Z,24.90
2022-08-30T10:37:31.384Z,24.90
2022-08-30T10:40:26.681Z,25.00
2022-08-30T10:43:03.080Z,25.00
2022-08-30T10:45:37.884Z,25.10
2022-08-30T10:48:15.508Z,25.20
2022-08-30T10:50:50.205Z,25.30
2022-08-30T10:53:24.751Z,25.30
2022-08-30T10:55:59.025Z,25.30
2022-08-30T10:58:31.407Z,25.40
2022-08-30T11:01:23.594Z,25.40
2022-08-30T11:04:32.992Z,25.40
2022-08-30T11:07:19.076Z,25.50
2022-08-30T11:10:27.967Z,25.50
2022-08-30T11:13:02.790Z,25.60
2022-08-30T11:15:38.832Z,25.70
2022-08-30T11:18:15.397Z,25.70
2022-08-30T11:20:49.354Z,25.70
2022-08-30T11:23:32.798Z,25.80
2022-08-30T11:26:06.154Z,25.80
2022-08-30T11:29:06.948Z,25.90
2022-08-30T11:31:42.636Z,25.90
2022-08-30T11:34:13.544Z,25.90
2022-08-30T11:37:09.839Z,26.00
2022-08-30T11:39:56.361Z,26.00
2022-08-30T11:45:52.460Z,26.10
2022-08-30T11:48:54.502Z,26.20
2022-08-30T11:52:26.514Z,26.20
2022-08-30T11:55:24.420Z,26.20
2022-08-30T11:58:02.226Z,26.20
2022-08-30T12:00:36.662Z,26.20
2022-08-30T12:03:08.034Z,26.30
2022-08-30T12:05:59.824Z,26.40
2022-08-30T12:09:02.320Z,26.50
2022-08-30T12:11:56.971Z,26.50
2022-08-30T12:14:49.044Z,26.60
2022-08-30T12:17:53.623Z,26.70
2022-08-30T12:20:28.842Z,26.70
2022-08-30T12:23:16.960Z,26.80
2022-08-30T12:25:46.693Z,26.80
2022-08-30T12:28:23.176Z,26.80
2022-08-30T12:30:52.559Z,26.80
2022-08-30T12:33:39.495Z,26.90
2022-08-30T12:36:32.047Z,26.90
2022-08-30T12:39:16.953Z,26.90
2022-08-30T12:41:46.822Z,26.90
2022-08-30T12:44:20.570Z,26.90
2022-08-30T12:46:58.861Z,27.00
2022-08-30T12:49:32.687Z,27.00
2022-08-30T12:52:18.547Z,27.00
2022-08-30T12:54:49.348Z,27.10
2022-08-30T12:57:39.190Z,27.10
2022-08-30T13:00:11.660Z,27.20
2022-08-30T13:02:48.194Z,27.20
2022-08-30T13:05:47.907Z,27.20
2022-08-30T13:08:22.945Z,27.20
2022-08-30T13:11:04.451Z,27.20
2022-08-30T13:13:45.697Z,27.20
2022-08-30T13:16:29.362Z,27.20
2022-08-30T13:19:29.310Z,27.30
2022-08-30T13:22:00.036Z,27.40
2022-08-30T13:24:29.284Z,27.40
2022-08-30T13:27:06.578Z,27.40
2022-08-30T13:29:35.280Z,27.50
2022-08-30T13:32:04.520Z,27.50
2022-08-30T13:34:35.466Z,27.50
2022-08-30T13:37:05.109Z,27.50
2022-08-30T13:40:04.019Z,27.60
2022-08-30T13:42:35.191Z,27.60
2022-08-30T13:45:40.866Z,27.60
2022-08-30T13:48:00.122Z,27.70
2022-08-30T13:50:31.874Z,27.70
2022-08-30T13:54:13.059Z,27.70
2022-08-30T13:57:54.842Z,27.80
2022-08-30T14:00:47.052Z,27.80
2022-08-30T14:03:17.084Z,27.90
2022-08-30T14:05:54.570Z,27.90
2022-08-30T14:08:48.787Z,27.90
2022-08-30T14:11:22.859Z,27.90
2022-08-30T14:16:49.374Z,28.00
2022-08-30T14:19:22.874Z,28.00
2022-08-30T14:21:52.240Z,28.00
2022-08-30T14:24:21.467Z,28.00
2022-08-30T14:26:53.939Z,28.00
2022-08-30T14:29:29.885Z,28.00
2022-08-30T14:32:00.573Z,28.00
2022-08-30T14:34:29.447Z,28.00
2022-08-30T14:36:58.264Z,28.00
2022-08-30T14:39:27.372Z,27.90
2022-08-30T14:41:57.085Z,28.00
2022-08-30T14:44:27.193Z,28.00
2022-08-30T14:46:56.550Z,28.00
2022-08-30T14:49:27.379Z,28.00
2022-08-30T14:51:56.931Z,28.00
2022-08-30T14:54:29.054Z,28.00
2022-08-30T14:56:58.703Z,28.10
2022-08-30T14:59:28.883Z,28.10
2022-08-30T15:01:57.829Z,28.10
2022-08-30T15:04:27.930Z,28.10
2022-08-30T15:06:56.529Z,28.10
2022-08-30T15:09:26.109Z,28.20
2022-08-30T15:11:58.835Z,28.20
2022-08-30T15:14:28.399Z,28.20
2022-08-30T15:16:58.322Z,28.20
2022-08-30T15:19:29.204Z,28.10
2022-08-30T15:22:02.402Z,28.10
2022-08-30T15:24:32.609Z,28.10
2022-08-30T15:27:02.152Z,28.10
2022-08-30T15:29:32.157Z,28.00
2022-08-30T15:32:02.390Z,28.00
2022-08-30T15:34:33.701Z,28.00
2022-08-30T15:37:02.907Z,27.90
2022-08-30T15:39:32.265Z,27.90
2022-08-30T15:42:01.790Z,27.90
2022-08-30T15:44:31.678Z,27.80
2022-08-30T15:47:00.618Z,27.80
2022-08-30T15:49:31.501Z,27.80
2022-08-30T15:52:04.131Z,27.70
2022-08-30T15:54:33.380Z,27.70
2022-08-30T15:57:02.684Z,27.70
2022-08-30T15:59:34.698Z,27.60
2022-08-30T16:02:03.349Z,27.60
2022-08-30T16:04:33.576Z,27.50
2022-08-30T16:07:02.624Z,27.50
2022-08-30T16:09:43.970Z,27.40
2022-08-30T16:12:21.188Z,27.40
2022-08-30T16:14:55.104Z,27.40
2022-08-30T16:17:26.991Z,27.40
2022-08-30T16:19:58.884Z,27.40
2022-08-30T16:22:37.487Z,27.40
2022-08-30T16:25:07.700Z,27.30
2022-08-30T16:27:55.882Z,27.30
2022-08-30T16:30:29.211Z,27.30
2022-08-30T16:33:00.971Z,27.30
2022-08-30T16:35:31.194Z,27.30
2022-08-30T16:38:00.179Z,27.30
2022-08-30T16:40:42.942Z,27.20
2022-08-30T16:43:24.275Z,27.20
2022-08-30T16:46:07.020Z,27.20
2022-08-30T16:48:35.930Z,27.20
2022-08-30T16:51:17.734Z,27.10
2022-08-30T16:54:03.680Z,27.10
2022-08-30T16:56:54.098Z,27.10
2022-08-30T16:59:29.243Z,27.00
2022-08-30T17:02:09.387Z,27.00
2022-08-30T17:04:56.569Z,27.00
2022-08-30T17:07:27.189Z,27.00
2022-08-30T17:10:26.361Z,27.00
2022-08-30T17:13:01.078Z,26.90
2022-08-30T17:15:36.496Z,26.90
2022-08-30T17:18:19.492Z,26.90
2022-08-30T17:20:52.532Z,26.80
2022-08-30T17:23:26.095Z,26.80
2022-08-30T17:26:07.946Z,26.80
2022-08-30T17:28:51.075Z,26.70
2022-08-30T17:31:22.033Z,26.70
2022-08-30T17:33:51.758Z,26.70
2022-08-30T17:36:20.268Z,26.70
2022-08-30T17:38:50.829Z,26.70
2022-08-30T17:41:19.513Z,26.60
2022-08-30T17:43:49.223Z,26.60
2022-08-30T18:46:55.749Z,25.90
2022-08-30T18:49:26.025Z,25.90
2022-08-30T18:51:54.752Z,25.80
2022-08-30T18:54:23.962Z,25.80
2022-08-30T18:56:53.034Z,25.90
2022-08-30T18:59:23.710Z,25.80
2022-08-30T19:02:06.287Z,25.80
2022-08-30T19:04:36.066Z,25.80
2022-08-30T19:07:07.003Z,25.80
2022-08-30T19:09:36.520Z,25.80
2022-08-30T19:12:09.461Z,25.80
2022-08-30T19:14:40.507Z,25.80
2022-08-30T19:17:11.304Z,25.80
2022-08-30T19:19:48.100Z,25.70
2022-08-30T19:22:19.431Z,25.80
2022-08-30T19:24:49.628Z,25.80
2022-08-30T19:27:23.138Z,25.80
2022-08-30T19:30:09.443Z,25.70
2022-08-30T19:32:39.734Z,25.70
2022-08-30T19:35:10.919Z,25.70
2022-08-30T19:37:40.544Z,25.70
2022-08-30T19:40:15.067Z,25.70
2022-08-30T19:42:46.582Z,25.70
2022-08-30T19:45:18.566Z,25.70
2022-08-30T19:47:50.810Z,25.60
2022-08-30T19:50:20.787Z,25.60
2022-08-30T19:52:55.020Z,25.60
2022-08-30T19:55:28.758Z,25.60
2022-08-30T19:58:00.499Z,25.60
2022-08-30T20:00:31.182Z,25.60
2022-08-30T20:03:02.547Z,25.60
2022-08-30T20:05:32.623Z,25.60
2022-08-30T20:08:01.458Z,25.60
2022-08-30T20:10:30.477Z,25.60
2022-08-30T20:12:59.887Z,25.50
2022-08-30T20:15:29.201Z,25.50
2022-08-30T20:18:06.060Z,25.60
2022-08-30T20:23:35.443Z,25.50
2022-08-30T20:26:05.480Z,25.50
2022-08-30T20:28:34.287Z,25.40
2022-08-30T20:31:06.672Z,25.40
2022-08-30T20:33:38.185Z,25.40
2022-08-30T20:36:11.520Z,25.40
2022-08-30T20:38:40.958Z,25.50
2022-08-30T20:41:12.713Z,25.40
2022-08-30T20:43:42.194Z,25.40
2022-08-30T20:46:13.086Z,25.40
2022-08-30T20:48:43.390Z,25.40
2022-08-30T20:51:19.408Z,25.40
2022-08-30T20:53:48.576Z,25.40
2022-08-30T20:56:21.769Z,25.40
2022-08-30T20:58:51.279Z,25.40
2022-08-30T21:01:21.059Z,25.30
2022-08-30T21:03:51.221Z,25.30
2022-08-30T21:06:22.061Z,25.30
2022-08-30T21:08:51.203Z,25.30
2022-08-30T21:11:21.058Z,25.30
2022-08-30T21:13:49.890Z,25.20
2022-08-30T21:16:22.187Z,25.20
2022-08-30T21:18:51.748Z,25.20
2022-08-30T21:21:26.596Z,25.20
2022-08-30T21:24:00.872Z,25.20
2022-08-30T21:26:31.474Z,25.20
2022-08-30T21:29:00.465Z,25.20
2022-08-30T21:31:30.302Z,25.10
2022-08-30T21:33:59.316Z,25.20
2022-08-30T21:36:47.023Z,25.10
2022-08-30T21:39:21.171Z,25.10
2022-08-30T21:41:53.020Z,25.10
2022-08-30T21:44:25.745Z,25.10
2022-08-30T21:46:56.227Z,25.10
2022-08-30T21:49:26.549Z,25.00
2022-08-30T21:51:57.670Z,25.00
2022-08-30T21:54:28.383Z,25.00
2022-08-30T21:57:05.000Z,25.00
2022-08-30T21:59:34.336Z,25.00
2022-08-30T22:08:17.730Z,24.90
2022-08-30T22:30:20.904Z,24.70
2022-08-30T22:32:49.982Z,24.70
2022-08-30T22:35:21.627Z,24.70
2022-08-30T22:37:52.946Z,24.60
2022-08-30T22:40:23.062Z,24.60
2022-08-30T22:42:54.170Z,24.60
2022-08-30T22:45:22.840Z,24.60
2022-08-30T22:47:51.490Z,24.60
2022-08-30T22:50:20.587Z,24.50
2022-08-30T22:52:50.021Z,24.50
2022-08-30T22:55:19.240Z,24.50
2022-08-30T22:57:48.105Z,24.40
2022-08-30T23:00:20.441Z,24.40
2022-08-30T23:02:53.318Z,24.40
2022-08-30T23:05:24.256Z,24.40
2022-08-30T23:07:53.154Z,24.40
2022-08-30T23:10:27.958Z,24.40
2022-08-30T23:12:56.971Z,24.30
2022-08-30T23:15:29.626Z,24.30
2022-08-30T23:17:59.328Z,24.30
2022-08-30T23:20:32.516Z,24.30
2022-08-30T23:23:01.300Z,24.20
2022-08-30T23:25:52.104Z,24.20
2022-08-30T23:28:40.590Z,24.10
2022-08-30T23:31:32.099Z,24.10
2022-08-30T23:34:18.965Z,24.10
2022-08-30T23:37:05.565Z,24.10
2022-08-30T23:39:51.707Z,24.10
2022-08-30T23:42:37.886Z,24.10
2022-08-30T23:45:25.491Z,24.10
2022-08-30T23:48:13.061Z,24.00
2022-08-30T23:50:59.121Z,24.00
2022-08-30T23:53:44.879Z,24.00
2022-08-30T23:56:31.270Z,24.00
2022-08-30T23:59:17.683Z,24.00
